Time;durP1;ratioP1;P1;durP2;ratioP2;P2;SDS_P1;SDS_P2;PMS_P1;PMS_P2;Temp;Humidity;BMP_temperature;BMP_pressure;BME280_temperature;BME280_humidity;BME280_pressure;Samples;Min_cycle;Max_cycle;Signal;HPM_P1;HPM_P2
2023/02/06 00:00:47;;;;;;;10.65;6.22;;;4.00;54.90;;;;;;4948689;28;20027;-80
2023/02/06 00:03:14;;;;;;;10.85;5.82;;;4.00;54.90;;;;;;4946839;28;20621;-82
2023/02/06 00:05:40;;;;;;;9.38;5.45;;;4.00;55.00;;;;;;4945978;29;20136;-80
2023/02/06 00:08:06;;;;;;;11.05;5.97;;;4.00;55.00;;;;;;4945543;29;20123;-80
2023/02/06 00:10:33;;;;;;;11.30;5.72;;;3.90;54.80;;;;;;4940394;28;20066;-83
2023/02/06 00:12:59;;;;;;;9.45;5.35;;;3.90;54.80;;;;;;4942097;28;20038;-80
2023/02/06 00:15:25;;;;;;;9.57;5.38;;;3.90;54.90;;;;;;4946794;28;20039;-80
2023/02/06 00:17:51;;;;;;;10.77;6.05;;;3.80;54.70;;;;;;4947084;28;20032;-81
2023/02/06 00:20:17;;;;;;;13.13;5.65;;;3.80;54.80;;;;;;4945282;29;20482;-80
2023/02/06 00:22:43;;;;;;;7.57;4.90;;;3.80;54.80;;;;;;4941673;28;20110;-79
2023/02/06 00:25:09;;;;;;;7.20;4.68;;;3.70;55.20;;;;;;4932736;29;20385;-79
2023/02/06 00:27:35;;;;;;;11.88;5.32;;;3.70;54.70;;;;;;4935182;28;20051;-79
2023/02/06 00:30:01;;;;;;;9.32;4.90;;;3.70;54.70;;;;;;4940733;29;20036;-80
2023/02/06 00:32:27;;;;;;;8.50;5.38;;;3.60;54.60;;;;;;4944823;29;20042;-79
2023/02/06 00:34:53;;;;;;;8.60;4.90;;;3.60;54.60;;;;;;4939574;28;20107;-80
2023/02/06 00:37:19;;;;;;;10.45;5.47;;;3.60;54.60;;;;;;4936322;28;20142;-80
2023/02/06 00:39:45;;;;;;;8.23;5.20;;;3.60;54.70;;;;;;4936162;28;20043;-80
2023/02/06 00:42:11;;;;;;;9.32;4.85;;;3.60;54.70;;;;;;4944574;29;20031;-79
2023/02/06 00:44:37;;;;;;;9.63;5.00;;;3.50;54.60;;;;;;4945070;29;20538;-79
2023/02/06 00:47:03;;;;;;;13.85;5.57;;;3.50;54.60;;;;;;4945817;28;20121;-79
2023/02/06 00:49:29;;;;;;;9.80;4.93;;;3.50;54.70;;;;;;4945483;28;20573;-79
2023/02/06 00:51:55;;;;;;;10.02;5.25;;;3.50;54.70;;;;;;4945070;28;20020;-78
2023/02/06 00:54:21;;;;;;;11.23;5.90;;;3.40;54.50;;;;;;4945095;29;20074;-79
2023/02/06 00:56:47;;;;;;;9.65;5.68;;;3.40;54.50;;;;;;4937970;29;20505;-79
2023/02/06 00:59:13;;;;;;;10.85;5.90;;;3.40;54.50;;;;;;4941286;29;20048;-79
2023/02/06 01:01:39;;;;;;;9.35;6.03;;;3.40;54.50;;;;;;4944410;29;20174;-79
2023/02/06 01:04:05;;;;;;;11.23;5.78;;;3.40;54.50;;;;;;4938418;28;20127;-82
2023/02/06 01:06:31;;;;;;;11.60;6.80;;;3.30;54.30;;;;;;4944013;29;20451;-82
2023/02/06 01:08:58;;;;;;;13.88;6.60;;;3.30;54.40;;;;;;4942043;29;20044;-80
2023/02/06 01:11:27;;;;;;;11.70;7.10;;;3.30;54.50;;;;;;4938839;28;20035;-83
2023/02/06 01:13:53;;;;;;;9.48;6.45;;;3.30;54.50;;;;;;4947708;29;20043;-81
2023/02/06 01:16:21;;;;;;;13.55;7.80;;;3.30;54.50;;;;;;4945804;29;20443;-81
2023/02/06 01:18:48;;;;;;;14.20;7.65;;;3.30;54.50;;;;;;4936709;28;20046;-84
2023/02/06 01:21:20;;;;;;;16.00;7.82;;;3.20;54.40;;;;;;4945622;29;20038;-83
2023/02/06 01:23:48;;;;;;;13.70;8.23;;;3.20;54.40;;;;;;4947015;28;20039;-82
2023/02/06 01:26:16;;;;;;;14.13;8.30;;;3.20;54.50;;;;;;4946986;28;20166;-81
2023/02/06 01:28:45;;;;;;;14.23;8.30;;;3.20;54.50;;;;;;4933793;29;20047;-82
2023/02/06 01:31:23;;;;;;;14.88;8.93;;;3.20;54.50;;;;;;4944392;29;20031;-81
2023/02/06 01:33:50;;;;;;;15.88;9.00;;;3.20;54.60;;;;;;4947086;28;20031;-81
2023/02/06 01:36:18;;;;;;;16.77;9.32;;;3.20;54.50;;;;;;4926786;29;20058;-81
2023/02/06 01:38:46;;;;;;;14.40;9.70;;;3.20;54.60;;;;;;4926450;29;20102;-81
2023/02/06 01:41:12;;;;;;;16.27;10.02;;;3.20;54.60;;;;;;4952988;28;20503;-81
2023/02/06 01:43:41;;;;;;;17.23;10.82;;;3.10;54.40;;;;;;4941061;28;20189;-80
2023/02/06 01:46:08;;;;;;;15.40;9.18;;;3.10;54.50;;;;;;4942267;29;20039;-81
2023/02/06 01:48:53;;;;;;;13.13;9.43;;;3.10;54.50;;;;;;4925816;29;20043;-81
2023/02/06 01:51:23;;;;;;;17.52;10.63;;;3.10;54.60;;;;;;4937720;28;20031;-80
2023/02/06 01:53:59;;;;;;;18.40;10.25;;;3.10;54.50;;;;;;4945152;28;20043;-79
2023/02/06 01:56:28;;;;;;;17.90;10.02;;;3.10;54.50;;;;;;4948158;28;20042;-79
2023/02/06 01:59:01;;;;;;;19.42;10.38;;;3.10;54.50;;;;;;4941135;28;20083;-79
2023/02/06 02:01:29;;;;;;;18.38;9.48;;;3.00;54.40;;;;;;4943818;29;20098;-81
2023/02/06 02:04:03;;;;;;;17.73;9.95;;;3.00;54.40;;;;;;4943007;28;20038;-82
2023/02/06 02:06:29;;;;;;;13.68;9.23;;;3.10;54.60;;;;;;4932462;28;20063;-83
2023/02/06 02:08:56;;;;;;;15.60;9.82;;;3.00;54.40;;;;;;4942657;29;20720;-82
2023/02/06 02:11:28;;;;;;;15.20;9.85;;;3.00;54.50;;;;;;4943610;29;20031;-82
2023/02/06 02:13:55;;;;;;;14.65;9.65;;;3.00;54.50;;;;;;4936612;28;20062;-83
2023/02/06 02:16:45;;;;;;;17.02;10.23;;;2.90;54.40;;;;;;4945746;29;20035;-84
2023/02/06 02:19:28;;;;;;;16.95;10.23;;;2.90;54.40;;;;;;4943968;29;20079;-83
2023/02/06 02:22:13;;;;;;;18.10;9.32;;;2.90;54.40;;;;;;4945111;29;20035;-84
2023/02/06 02:24:48;;;;;;;16.13;9.13;;;2.80;54.30;;;;;;4949523;28;20053;-85
2023/02/06 02:27:25;;;;;;;13.57;9.80;;;2.90;54.50;;;;;;4927542;28;20657;-80
2023/02/06 02:30:16;;;;;;;15.00;8.70;;;2.90;54.60;;;;;;4940108;28;20051;-80
2023/02/06 02:32:51;;;;;;;15.88;9.57;;;2.80;54.40;;;;;;4939880;29;20035;-79
2023/02/06 02:35:49;;;;;;;16.30;9.13;;;2.80;54.40;;;;;;4934031;28;20044;-79
2023/02/06 02:38:28;;;;;;;11.25;8.40;;;2.80;54.50;;;;;;4933947;29;20028;-80
2023/02/06 02:41:12;;;;;;;18.33;9.20;;;2.80;54.50;;;;;;4932755;29;20046;-85
2023/02/06 02:43:57;;;;;;;17.20;8.65;;;2.70;54.30;;;;;;4944454;28;20136;-80
2023/02/06 02:46:45;;;;;;;12.48;8.65;;;2.70;54.30;;;;;;4942597;28;20387;-83
2023/02/06 02:49:15;;;;;;;14.93;8.05;;;2.70;54.40;;;;;;4947298;29;20074;-80
2023/02/06 02:51:44;;;;;;;16.15;8.35;;;2.70;54.40;;;;;;4945894;29;20114;-80
2023/02/06 02:54:10;;;;;;;15.80;8.77;;;2.70;54.40;;;;;;4937885;29;20046;-80
2023/02/06 02:56:36;;;;;;;14.38;8.80;;;2.60;54.20;;;;;;4947168;29;20082;-79
2023/02/06 02:59:12;;;;;;;11.75;7.97;;;2.70;54.40;;;;;;4932966;29;20055;-79
2023/02/06 03:01:52;;;;;;;17.85;8.77;;;2.60;54.30;;;;;;4946574;29;20039;-80
2023/02/06 03:04:24;;;;;;;13.38;8.85;;;2.60;54.30;;;;;;4944565;29;20046;-79
2023/02/06 03:07:15;;;;;;;13.27;8.97;;;2.60;54.30;;;;;;4952871;28;20063;-80
2023/02/06 03:09:56;;;;;;;11.10;8.32;;;2.60;54.30;;;;;;4942047;28;20050;-79
2023/02/06 03:12:37;;;;;;;13.95;8.90;;;2.60;54.30;;;;;;4942770;29;20043;-79
2023/02/06 03:15:13;;;;;;;14.48;8.20;;;2.50;54.20;;;;;;4942138;28;20507;-79
2023/02/06 03:17:47;;;;;;;12.15;8.48;;;2.50;54.20;;;;;;4951261;29;20606;-80
2023/02/06 03:20:15;;;;;;;14.02;8.02;;;2.50;54.20;;;;;;4950664;29;20039;-79
2023/02/06 03:22:45;;;;;;;15.13;8.35;;;2.50;54.20;;;;;;4935408;29;20101;-79
2023/02/06 03:25:14;;;;;;;13.13;7.60;;;2.50;54.30;;;;;;4951249;28;20555;-79
2023/02/06 03:27:42;;;;;;;12.20;8.73;;;2.50;54.30;;;;;;4950089;29;20125;-79
2023/02/06 03:30:10;;;;;;;14.35;7.97;;;2.40;54.20;;;;;;4947453;29;20091;-79
2023/02/06 03:32:41;;;;;;;11.93;8.55;;;2.40;54.20;;;;;;4933404;29;20090;-79
2023/02/06 03:35:12;;;;;;;17.13;8.40;;;2.40;54.20;;;;;;4949783;28;20047;-79
2023/02/06 03:37:38;;;;;;;12.77;9.15;;;2.40;54.20;;;;;;4950548;28;20066;-79
2023/02/06 03:40:06;;;;;;;13.43;8.15;;;2.40;54.20;;;;;;4949156;28;20060;-79
2023/02/06 03:42:36;;;;;;;12.57;7.68;;;2.40;54.30;;;;;;4956549;28;20113;-78
2023/02/06 03:45:28;;;;;;;14.20;7.63;;;2.30;54.10;;;;;;4946656;29;20046;-79
2023/02/06 03:47:58;;;;;;;15.68;8.73;;;2.40;54.40;;;;;;4936805;29;20102;-79
2023/02/06 03:50:25;;;;;;;11.93;7.88;;;2.30;54.10;;;;;;4937371;29;20506;-80
2023/02/06 03:52:54;;;;;;;12.38;7.47;;;2.30;54.20;;;;;;4947728;28;20147;-79
2023/02/06 03:55:22;;;;;;;12.80;7.18;;;2.30;54.20;;;;;;4950322;28;20648;-88
2023/02/06 03:58:06;;;;;;;14.80;8.52;;;2.30;54.10;;;;;;4950040;28;20049;-80
2023/02/06 04:00:33;;;;;;;11.20;7.47;;;2.30;54.20;;;;;;4940529;29;20027;-80
2023/02/06 04:03:00;;;;;;;11.73;8.18;;;2.30;54.20;;;;;;4946149;29;20526;-79
2023/02/06 04:05:27;;;;;;;11.68;7.97;;;2.30;54.10;;;;;;4940684;29;20134;-79
2023/02/06 04:07:55;;;;;;;11.55;8.15;;;2.30;54.20;;;;;;4950390;28;20528;-81
2023/02/06 04:10:22;;;;;;;13.48;7.63;;;2.30;54.20;;;;;;4947505;29;20106;-80
2023/02/06 04:12:48;;;;;;;17.10;7.40;;;2.20;54.00;;;;;;4948120;29;20488;-79
2023/02/06 04:15:13;;;;;;;11.95;8.05;;;2.20;54.10;;;;;;4942863;29;20073;-80
2023/02/06 04:17:39;;;;;;;12.50;7.68;;;2.20;54.10;;;;;;4950603;28;20043;-81
2023/02/06 04:20:06;;;;;;;17.92;8.68;;;2.20;54.10;;;;;;4944478;28;20526;-80
2023/02/06 04:22:32;;;;;;;11.07;7.38;;;2.10;53.90;;;;;;4942204;28;20039;-80
2023/02/06 04:24:58;;;;;;;15.50;8.13;;;2.10;54.00;;;;;;4948891;28;20031;-79
2023/02/06 04:27:24;;;;;;;12.32;8.90;;;2.10;54.00;;;;;;4949374;28;20027;-79
2023/02/06 04:29:50;;;;;;;15.70;9.10;;;2.00;53.90;;;;;;4906520;28;1131234;-79
2023/02/06 04:32:16;;;;;;;13.95;8.48;;;2.10;54.10;;;;;;4951620;28;20642;-78
2023/02/06 04:34:42;;;;;;;12.77;8.60;;;2.00;53.90;;;;;;4950421;28;20027;-79
2023/02/06 04:37:11;;;;;;;10.98;8.18;;;2.00;53.90;;;;;;4941594;28;20042;-79
2023/02/06 04:39:37;;;;;;;14.65;8.88;;;2.00;53.90;;;;;;4950135;28;20031;-78
2023/02/06 04:42:04;;;;;;;13.00;8.23;;;2.00;53.90;;;;;;4956669;28;20045;-79
2023/02/06 04:44:31;;;;;;;16.65;8.45;;;2.00;54.00;;;;;;4947462;28;20078;-79
2023/02/06 04:46:57;;;;;;;11.13;8.35;;;1.90;53.80;;;;;;4944009;28;20062;-77
2023/02/06 04:49:23;;;;;;;13.70;8.80;;;1.90;53.90;;;;;;4944158;29;20135;-79
2023/02/06 04:51:49;;;;;;;15.50;8.82;;;1.90;53.90;;;;;;4938729;28;20114;-79
2023/02/06 04:54:16;;;;;;;10.88;8.10;;;1.90;53.90;;;;;;4941090;28;20474;-78
2023/02/06 04:56:43;;;;;;;17.13;8.57;;;1.90;53.90;;;;;;4948556;29;20121;-78
2023/02/06 04:59:09;;;;;;;13.30;8.98;;;1.90;54.00;;;;;;4940973;28;20126;-79
2023/02/06 05:01:35;;;;;;;13.80;8.52;;;1.90;54.00;;;;;;4939347;29;20444;-78
2023/02/06 05:04:01;;;;;;;12.13;8.05;;;1.90;54.00;;;;;;4949941;28;20055;-79
2023/02/06 05:06:28;;;;;;;10.43;8.13;;;1.90;54.00;;;;;;4945997;28;20069;-78
2023/02/06 05:08:54;;;;;;;12.38;8.27;;;1.90;54.00;;;;;;4948752;28;20149;-79
2023/02/06 05:11:21;;;;;;;14.27;8.88;;;1.90;54.00;;;;;;4947170;28;20039;-78
2023/02/06 05:13:47;;;;;;;13.55;9.25;;;1.90;54.00;;;;;;4949691;28;20746;-76
2023/02/06 05:16:14;;;;;;;12.80;9.18;;;1.80;53.80;;;;;;4948753;29;20344;-77
2023/02/06 05:18:41;;;;;;;16.10;8.63;;;1.90;54.00;;;;;;4946991;29;20074;-78
2023/02/06 05:21:07;;;;;;;14.05;9.07;;;1.90;54.00;;;;;;4941919;29;20282;-77
2023/02/06 05:23:33;;;;;;;13.85;8.60;;;1.90;54.00;;;;;;4949546;28;20539;-75
2023/02/06 05:25:59;;;;;;;14.85;9.23;;;1.80;53.90;;;;;;4946459;28;20608;-76
2023/02/06 05:28:28;;;;;;;13.15;9.10;;;1.80;53.90;;;;;;4946035;28;20072;-76
2023/02/06 05:30:57;;;;;;;16.08;9.25;;;1.90;54.10;;;;;;4949392;28;20047;-76
2023/02/06 05:33:23;;;;;;;13.77;8.77;;;1.80;53.90;;;;;;4948766;28;20035;-75
2023/02/06 05:35:49;;;;;;;13.90;9.60;;;1.80;54.00;;;;;;4945875;28;20042;-77
2023/02/06 05:38:15;;;;;;;15.00;9.10;;;1.80;54.00;;;;;;4941795;28;20118;-75
2023/02/06 05:40:40;;;;;;;17.00;8.77;;;1.80;54.00;;;;;;4948383;28;20074;-77
2023/02/06 05:43:07;;;;;;;15.30;8.85;;;1.70;53.80;;;;;;4940371;28;20586;-77
2023/02/06 05:45:33;;;;;;;15.77;9.07;;;1.70;53.90;;;;;;4949282;28;20147;-77
2023/02/06 05:47:59;;;;;;;13.40;9.48;;;1.70;53.90;;;;;;4945312;28;20126;-76
2023/02/06 05:50:25;;;;;;;16.02;8.55;;;1.80;54.20;;;;;;4942898;29;20109;-76
2023/02/06 05:52:52;;;;;;;15.25;8.90;;;1.70;54.00;;;;;;4934264;28;20035;-76
2023/02/06 05:55:18;;;;;;;12.80;8.70;;;1.70;54.00;;;;;;4945349;28;20039;-82
2023/02/06 05:57:44;;;;;;;12.20;8.25;;;1.70;54.00;;;;;;4941671;29;20066;-78
2023/02/06 06:00:11;;;;;;;14.65;9.25;;;1.70;54.00;;;;;;4934050;28;20123;-78
2023/02/06 06:02:40;;;;;;;15.30;9.40;;;1.70;54.10;;;;;;4944852;28;20043;-78
2023/02/06 06:05:06;;;;;;;13.52;8.30;;;1.70;54.00;;;;;;4943798;29;20043;-78
2023/02/06 06:07:32;;;;;;;13.23;8.20;;;1.70;54.00;;;;;;4945595;28;20039;-80
2023/02/06 06:09:58;;;;;;;15.25;8.70;;;1.70;54.10;;;;;;4940516;28;20522;-80
2023/02/06 06:12:24;;;;;;;14.10;8.63;;;1.70;54.10;;;;;;4940436;29;20123;-79
2023/02/06 06:14:50;;;;;;;12.18;9.10;;;1.60;53.90;;;;;;4945546;28;20040;-83
2023/02/06 06:17:15;;;;;;;15.05;8.93;;;1.70;54.10;;;;;;4945125;29;20039;-85
2023/02/06 06:19:41;;;;;;;13.40;8.65;;;1.70;54.70;;;;;;4939028;28;20294;-81
2023/02/06 06:22:07;;;;;;;14.50;8.45;;;1.70;54.20;;;;;;4936816;28;20217;-82
2023/02/06 06:24:33;;;;;;;17.35;9.63;;;1.70;54.20;;;;;;4945310;28;20156;-83
2023/02/06 06:26:59;;;;;;;14.90;8.50;;;1.60;54.00;;;;;;4943073;29;20454;-80
2023/02/06 06:29:26;;;;;;;13.02;7.88;;;1.70;54.20;;;;;;4939858;28;20377;-79
2023/02/06 06:31:52;;;;;;;11.85;8.45;;;1.60;54.00;;;;;;4943570;29;20503;-81
2023/02/06 06:34:18;;;;;;;12.98;7.72;;;1.60;54.00;;;;;;4943775;28;20039;-78
2023/02/06 06:36:44;;;;;;;16.77;8.95;;;1.50;53.80;;;;;;4938913;28;20043;-79
2023/02/06 06:39:10;;;;;;;14.23;8.52;;;1.50;53.80;;;;;;4943509;28;20693;-83
2023/02/06 06:41:36;;;;;;;16.98;8.80;;;1.50;53.80;;;;;;4941983;29;20130;-79
2023/02/06 06:44:02;;;;;;;12.95;7.70;;;1.50;53.90;;;;;;4944535;28;20506;-80
2023/02/06 06:46:28;;;;;;;12.55;8.68;;;1.50;53.90;;;;;;4943433;28;20281;-79
2023/02/06 06:48:54;;;;;;;13.05;8.13;;;1.40;53.70;;;;;;4942013;28;20046;-80
2023/02/06 06:51:20;;;;;;;15.27;8.30;;;1.40;53.70;;;;;;4937573;28;20053;-76
2023/02/06 06:53:46;;;;;;;17.42;9.20;;;1.50;53.90;;;;;;4941872;28;20047;-78
2023/02/06 06:56:13;;;;;;;13.77;8.18;;;1.50;54.50;;;;;;4943639;28;20181;-79
2023/02/06 06:58:40;;;;;;;14.80;8.23;;;1.40;53.70;;;;;;4940722;28;20035;-78
2023/02/06 07:01:07;;;;;;;12.52;7.93;;;1.40;53.70;;;;;;4947037;28;20545;-79
2023/02/06 07:03:35;;;;;;;12.77;8.05;;;1.40;53.70;;;;;;4944297;28;20457;-78
2023/02/06 07:06:01;;;;;;;14.82;8.90;;;1.40;53.70;;;;;;4932760;29;20031;-79
2023/02/06 07:08:30;;;;;;;16.30;9.32;;;1.40;53.70;;;;;;4950909;29;20058;-80
2023/02/06 07:10:56;;;;;;;14.85;10.02;;;1.50;53.80;;;;;;4941293;29;20067;-80
2023/02/06 07:13:22;;;;;;;19.92;10.00;;;1.40;53.70;;;;;;4937280;28;20035;-85
2023/02/06 07:15:48;;;;;;;13.25;8.55;;;1.40;53.70;;;;;;4940128;28;20042;-89
2023/02/06 07:18:14;;;;;;;31.77;10.15;;;1.50;54.50;;;;;;4944080;28;20669;-93
2023/02/06 07:20:40;;;;;;;17.65;10.38;;;1.50;54.30;;;;;;4940804;29;20038;-88
2023/02/06 07:23:06;;;;;;;14.70;9.60;;;1.70;54.80;;;;;;4938795;28;20573;-87
2023/02/06 07:25:32;;;;;;;17.08;9.13;;;1.80;54.90;;;;;;4944399;28;20035;-79
2023/02/06 07:27:58;;;;;;;16.90;9.40;;;2.00;55.30;;;;;;4924527;29;20504;-80
2023/02/06 07:30:24;;;;;;;19.10;10.98;;;2.20;55.60;;;;;;4917491;29;20052;-83
2023/02/06 07:32:50;;;;;;;20.20;9.80;;;2.30;55.70;;;;;;4925240;29;20230;-78
2023/02/06 07:35:16;;;;;;;14.63;9.55;;;2.50;55.90;;;;;;4924719;29;20035;-83
2023/02/06 07:37:42;;;;;;;12.93;8.85;;;2.60;55.90;;;;;;4924821;29;20397;-84
2023/02/06 07:40:09;;;;;;;17.60;9.10;;;2.60;55.80;;;;;;4901592;29;20255;-85
2023/02/06 07:42:35;;;;;;;10.48;8.68;;;2.60;56.10;;;;;;4926356;29;20520;-89
2023/02/06 07:45:12;;;;;;;15.75;9.38;;;2.50;55.80;;;;;;4921257;29;20054;-81
2023/02/06 07:47:38;;;;;;;13.38;9.30;;;2.50;55.90;;;;;;4930197;29;20503;-85
2023/02/06 07:50:04;;;;;;;16.38;9.45;;;2.50;55.90;;;;;;4916462;28;20126;-87
2023/02/06 07:52:30;;;;;;;18.92;8.57;;;2.40;55.90;;;;;;4937941;29;20024;-89
2023/02/06 07:54:56;;;;;;;14.48;9.45;;;2.40;56.10;;;;;;4911768;29;20048;-90
2023/02/06 07:57:22;;;;;;;16.15;9.20;;;2.40;56.40;;;;;;4940685;29;20099;-89
2023/02/06 07:59:48;;;;;;;19.63;9.63;;;2.60;56.90;;;;;;4930945;29;20519;-88
2023/02/06 08:02:14;;;;;;;15.35;9.50;;;2.70;57.10;;;;;;4938765;28;20027;-88
2023/02/06 08:04:41;;;;;;;14.27;9.98;;;2.80;57.30;;;;;;4947569;29;20039;-84
2023/02/06 08:07:13;;;;;;;17.45;9.07;;;3.00;57.60;;;;;;4929339;29;20032;-84
2023/02/06 08:09:41;;;;;;;15.20;9.68;;;3.20;57.90;;;;;;4933893;29;20035;-87
2023/02/06 08:12:07;;;;;;;13.45;8.98;;;3.30;57.90;;;;;;4939883;28;20380;-85
2023/02/06 08:14:33;;;;;;;19.40;10.63;;;3.40;58.00;;;;;;4939195;29;20126;-88
2023/02/06 08:16:59;;;;;;;13.63;9.68;;;3.60;58.30;;;;;;4936856;29;20501;-85
2023/02/06 08:19:25;;;;;;;17.13;9.65;;;3.70;58.40;;;;;;4938318;29;20024;-85
2023/02/06 08:21:51;;;;;;;13.52;9.57;;;3.90;58.70;;;;;;4941111;28;20545;-85
2023/02/06 08:24:17;;;;;;;16.55;9.35;;;4.00;58.80;;;;;;4929023;29;20050;-82
2023/02/06 08:26:43;;;;;;;15.77;9.05;;;4.10;58.90;;;;;;4937352;29;20031;-83
2023/02/06 08:29:09;;;;;;;15.23;9.38;;;4.20;59.10;;;;;;4935038;28;20052;-83
2023/02/06 08:31:38;;;;;;;13.90;9.32;;;4.20;59.00;;;;;;4922234;29;20551;-83
2023/02/06 08:34:06;;;;;;;16.70;8.70;;;4.40;59.30;;;;;;4930564;29;20032;-83
2023/02/06 08:36:33;;;;;;;14.85;9.20;;;4.40;59.20;;;;;;4939492;29;20055;-84
2023/02/06 08:39:00;;;;;;;19.75;8.45;;;4.50;59.40;;;;;;4918731;29;20027;-83
2023/02/06 08:41:31;;;;;;;16.83;8.98;;;4.60;59.90;;;;;;4936185;29;20484;-85
2023/02/06 08:43:59;;;;;;;15.40;8.98;;;4.90;60.50;;;;;;4931644;29;20539;-87
2023/02/06 08:46:27;;;;;;;12.65;7.85;;;5.20;60.90;;;;;;4929267;29;20032;-84
2023/02/06 08:48:55;;;;;;;18.25;8.35;;;5.40;61.00;;;;;;4937342;29;20491;-87
2023/02/06 08:51:22;;;;;;;13.80;8.05;;;5.80;61.20;;;;;;4948903;28;20031;-86
2023/02/06 08:53:48;;;;;;;15.15;7.43;;;6.10;61.30;;;;;;4937273;29;20092;-87
2023/02/06 08:56:14;;;;;;;14.43;8.38;;;6.30;61.30;;;;;;4938543;28;20031;-83
2023/02/06 08:58:40;;;;;;;17.70;7.53;;;6.60;61.40;;;;;;4919545;29;20118;-81
2023/02/06 09:01:18;;;;;;;19.25;8.07;;;6.80;61.40;;;;;;4932242;28;20036;-80
2023/02/06 09:03:45;;;;;;;12.05;7.50;;;7.00;61.50;;;;;;4935330;29;20122;-82
2023/02/06 09:06:12;;;;;;;16.83;7.80;;;7.20;61.60;;;;;;4935366;29;20082;-81
2023/02/06 09:08:39;;;;;;;14.88;7.40;;;7.40;61.70;;;;;;4933259;29;20028;-83
2023/02/06 09:11:08;;;;;;;12.52;7.72;;;7.40;61.40;;;;;;4941018;29;20039;-82
2023/02/06 09:13:35;;;;;;;13.07;8.00;;;7.30;61.00;;;;;;4908484;29;20039;-88
2023/02/06 09:16:01;;;;;;;13.63;7.90;;;7.30;61.00;;;;;;4923997;29;20411;-92
2023/02/06 09:18:27;;;;;;;15.15;9.93;;;7.10;60.80;;;;;;4931284;29;20172;-86
2023/02/06 09:21:14;;;;;;;16.73;7.63;;;6.90;60.70;;;;;;4924833;29;20083;-86
2023/02/06 09:23:44;;;;;;;11.23;7.05;;;6.70;60.50;;;;;;4912855;29;20074;-87
2023/02/06 09:26:11;;;;;;;13.25;8.68;;;6.50;60.50;;;;;;4919331;29;20040;-84
2023/02/06 09:28:37;;;;;;;19.25;7.13;;;6.40;60.50;;;;;;4922899;29;20076;-84
2023/02/06 09:31:03;;;;;;;10.68;7.00;;;6.20;60.40;;;;;;4910410;29;20511;-86
2023/02/06 09:33:29;;;;;;;14.10;7.00;;;6.10;60.30;;;;;;4928070;29;20090;-82
2023/02/06 09:36:05;;;;;;;10.13;7.00;;;5.90;60.20;;;;;;4924788;29;20031;-84
2023/02/06 09:38:32;;;;;;;12.93;7.22;;;5.80;60.10;;;;;;4927695;29;20437;-83
2023/02/06 09:41:01;;;;;;;13.23;7.50;;;5.80;60.40;;;;;;4923428;29;20051;-80
2023/02/06 09:43:29;;;;;;;9.48;7.07;;;5.70;60.50;;;;;;4927697;29;20222;-84
2023/02/06 09:46:05;;;;;;;15.52;7.15;;;5.70;60.60;;;;;;4925300;29;20043;-81
2023/02/06 09:48:35;;;;;;;12.07;6.80;;;5.60;60.40;;;;;;4936386;29;20036;-83
2023/02/06 09:51:16;;;;;;;14.13;6.72;;;5.60;60.50;;;;;;4926071;29;20078;-81
2023/02/06 09:54:10;;;;;;;10.50;6.60;;;5.60;60.50;;;;;;4939768;29;20039;-82
2023/02/06 09:56:56;;;;;;;12.90;6.10;;;5.50;60.30;;;;;;4913267;29;20518;-82
2023/02/06 09:59:37;;;;;;;16.00;6.70;;;5.40;60.10;;;;;;4916526;29;20487;-83
2023/02/06 10:02:23;;;;;;;14.00;6.55;;;5.40;60.20;;;;;;4941426;29;20479;-83
2023/02/06 10:05:14;;;;;;;11.85;6.90;;;5.30;60.00;;;;;;4936514;29;20047;-80
2023/02/06 10:07:46;;;;;;;10.07;6.63;;;5.30;60.10;;;;;;4921207;29;20458;-80
2023/02/06 10:10:26;;;;;;;12.15;6.22;;;5.20;59.90;;;;;;4927302;29;20435;-81
2023/02/06 10:13:02;;;;;;;8.73;6.15;;;5.20;60.00;;;;;;4932708;28;20040;-79
2023/02/06 10:15:38;;;;;;;10.43;5.93;;;5.20;60.00;;;;;;4914240;29;20213;-80
2023/02/06 10:18:37;;;;;;;14.20;7.20;;;5.20;60.00;;;;;;4940149;29;20054;-80
2023/02/06 10:21:12;;;;;;;12.45;7.43;;;5.20;60.00;;;;;;4874316;29;20155;-81
2023/02/06 10:23:41;;;;;;;15.30;7.60;;;5.20;60.00;;;;;;4913028;29;20032;-81
2023/02/06 10:26:16;;;;;;;16.58;8.32;;;5.20;59.90;;;;;;4914316;29;20405;-81
2023/02/06 10:28:52;;;;;;;14.68;7.85;;;5.30;60.00;;;;;;4920456;29;20043;-81
2023/02/06 10:31:20;;;;;;;13.02;7.07;;;5.30;59.90;;;;;;4938618;29;20044;-83
2023/02/06 10:34:16;;;;;;;15.52;7.70;;;5.30;59.80;;;;;;4925514;29;20028;-83
2023/02/06 10:37:14;;;;;;;11.63;7.63;;;5.40;59.90;;;;;;4921465;29;20557;-82
2023/02/06 10:40:01;;;;;;;14.38;7.72;;;5.40;59.80;;;;;;4925152;29;20579;-89
2023/02/06 10:42:47;;;;;;;13.30;7.38;;;5.50;59.80;;;;;;4927090;29;20054;-85
2023/02/06 10:45:35;;;;;;;13.48;7.45;;;5.60;59.90;;;;;;4912546;29;20043;-87
2023/02/06 10:48:27;;;;;;;13.45;8.38;;;5.60;59.80;;;;;;4916484;29;20122;-86
2023/02/06 10:51:07;;;;;;;13.23;7.13;;;5.60;59.70;;;;;;4905996;29;20087;-84
2023/02/06 10:53:41;;;;;;;15.50;7.20;;;5.70;59.80;;;;;;4922071;29;20043;-83
2023/02/06 10:56:26;;;;;;;9.80;6.85;;;5.70;59.80;;;;;;4922058;29;20225;-83
2023/02/06 10:58:57;;;;;;;18.60;7.40;;;5.70;59.80;;;;;;4931032;29;20028;-87
2023/02/06 11:01:25;;;;;;;15.23;6.63;;;5.80;59.90;;;;;;4925761;29;20064;-79
2023/02/06 11:04:08;;;;;;;13.13;7.50;;;5.80;59.90;;;;;;4916754;29;20036;-80
2023/02/06 11:06:35;;;;;;;11.90;7.15;;;5.80;59.90;;;;;;4921649;29;20460;-85
2023/02/06 11:09:02;;;;;;;14.50;7.40;;;5.80;59.90;;;;;;4921865;29;20118;-81
2023/02/06 11:11:32;;;;;;;15.15;7.72;;;5.80;59.80;;;;;;4936566;29;20074;-82
2023/02/06 11:14:19;;;;;;;18.08;7.75;;;5.80;59.80;;;;;;4922681;29;20050;-81
2023/02/06 11:16:46;;;;;;;16.13;7.90;;;5.90;60.00;;;;;;4941795;29;20046;-79
2023/02/06 11:19:36;;;;;;;15.93;6.85;;;5.90;60.00;;;;;;4937357;28;20062;-84
2023/02/06 11:22:14;;;;;;;15.20;6.00;;;5.90;60.10;;;;;;4910707;29;20040;-80
2023/02/06 11:24:59;;;;;;;16.92;8.20;;;5.90;60.10;;;;;;4922715;29;20256;-84
2023/02/06 11:27:26;;;;;;;14.57;7.57;;;6.00;60.50;;;;;;4924615;29;20114;-83
2023/02/06 11:29:52;;;;;;;13.05;7.35;;;6.10;61.40;;;;;;4913143;29;20059;-82
2023/02/06 11:32:41;;;;;;;15.77;7.20;;;6.20;61.20;;;;;;4910659;29;20042;-87
2023/02/06 11:35:23;;;;;;;14.77;6.38;;;6.40;61.80;;;;;;4920170;29;20119;-76
2023/02/06 11:38:02;;;;;;;18.00;6.82;;;6.60;62.00;;;;;;4916129;29;20027;-77
2023/02/06 11:40:28;;;;;;;13.85;6.30;;;6.70;62.20;;;;;;4926974;29;20035;-83
2023/02/06 11:43:17;;;;;;;14.43;7.15;;;6.90;62.40;;;;;;4919887;29;20043;-86
2023/02/06 11:45:46;;;;;;;18.45;6.97;;;7.00;62.70;;;;;;4905136;29;20500;-85
2023/02/06 11:48:40;;;;;;;20.00;7.13;;;7.20;63.00;;;;;;4921620;29;20172;-83
2023/02/06 11:51:07;;;;;;;15.82;5.78;;;7.40;63.80;;;;;;4910606;29;20551;-82
2023/02/06 11:53:34;;;;;;;13.45;4.68;;;7.80;64.00;;;;;;4932195;29;20055;-81
2023/02/06 11:56:19;;;;;;;16.75;5.88;;;8.20;64.30;;;;;;4928353;29;20222;-85
2023/02/06 11:58:59;;;;;;;7.47;4.78;;;8.50;64.40;;;;;;4923568;29;20252;-86
2023/02/06 12:01:25;;;;;;;15.27;4.50;;;8.90;64.40;;;;;;4917424;29;20118;-85
2023/02/06 12:03:50;;;;;;;10.60;4.40;;;9.30;64.40;;;;;;4924895;29;20114;-85
2023/02/06 12:06:29;;;;;;;10.13;5.22;;;9.50;64.20;;;;;;4927040;29;20026;-82
2023/02/06 12:08:58;;;;;;;14.07;5.55;;;9.80;64.30;;;;;;4925114;29;20162;-84
2023/02/06 12:11:27;;;;;;;15.82;3.90;;;10.10;64.20;;;;;;4938705;29;20042;-82
2023/02/06 12:13:59;;;;;;;11.00;4.75;;;10.30;64.10;;;;;;4935838;29;20046;-82
2023/02/06 12:16:26;;;;;;;12.18;4.03;;;10.60;64.20;;;;;;4936099;28;20107;-85
2023/02/06 12:18:56;;;;;;;9.50;4.68;;;10.80;64.10;;;;;;4930533;29;20484;-86
2023/02/06 12:21:25;;;;;;;8.45;4.68;;;11.00;64.10;;;;;;4944484;29;20077;-87
2023/02/06 12:24:00;;;;;;;13.57;4.45;;;11.20;64.10;;;;;;4932901;28;20067;-88
2023/02/06 12:26:29;;;;;;;10.63;5.35;;;11.30;63.90;;;;;;4927925;29;20453;-87
2023/02/06 12:29:21;;;;;;;9.57;3.60;;;11.50;63.90;;;;;;4924099;29;20745;-88
2023/02/06 12:31:52;;;;;;;8.63;4.60;;;11.70;63.90;;;;;;4934760;29;20408;-83
2023/02/06 12:34:23;;;;;;;8.52;3.05;;;11.90;63.80;;;;;;4943714;29;20062;-84
2023/02/06 12:37:12;;;;;;;8.57;3.40;;;12.00;63.70;;;;;;4912719;29;20035;-84
2023/02/06 12:39:40;;;;;;;8.15;3.63;;;12.20;63.70;;;;;;4925381;29;20417;-84
2023/02/06 12:42:30;;;;;;;8.30;3.38;;;12.40;63.60;;;;;;4928504;29;20057;-84
2023/02/06 12:45:12;;;;;;;12.80;3.75;;;12.60;63.60;;;;;;4926458;29;20143;-84
2023/02/06 12:48:03;;;;;;;9.65;3.35;;;12.70;63.30;;;;;;4923436;29;20031;-84
2023/02/06 12:50:41;;;;;;;7.25;3.67;;;12.90;63.30;;;;;;4915211;29;20120;-86
2023/02/06 12:53:28;;;;;;;5.13;2.92;;;13.00;63.10;;;;;;4932306;29;20032;-85
2023/02/06 12:56:28;;;;;;;10.18;3.78;;;13.20;63.00;;;;;;4914053;29;20500;-84
2023/02/06 12:59:03;;;;;;;6.63;2.90;;;13.30;62.90;;;;;;4906546;29;20055;-85
2023/02/06 13:01:37;;;;;;;7.85;2.95;;;13.40;62.80;;;;;;4932566;29;20039;-84
2023/02/06 13:04:25;;;;;;;6.05;2.88;;;13.50;62.60;;;;;;4922546;29;20519;-84